Time;durP1;ratioP1;P1;durP2;ratioP2;P2;SDS_P1;SDS_P2;PMS_P1;PMS_P2;Temp;Humidity;BMP_temperature;BMP_pressure;BME280_temperature;BME280_humidity;BME280_pressure;Samples;Min_cycle;Max_cycle;Signal;HPM_P1;HPM_P2
2022/06/10 00:00:51;;;;;;;4.2;3.2;;;;;;;12.73;84.81836;95804.33;;;;
2022/06/10 00:01:52;;;;;;;4.2;3.2;;;;;;;12.73;84.81836;95804.33;;;;
2022/06/10 00:02:52;;;;;;;4.2;3.2;;;;;;;12.73;84.81836;95804.33;;;;
2022/06/10 00:03:53;;;;;;;4.2;3.2;;;;;;;12.73;84.81836;95804.33;;;;
2022/06/10 00:04:54;;;;;;;4.2;3.2;;;;;;;12.73;84.81836;95804.33;;;;
2022/06/10 00:05:54;;;;;;;4.2;3.2;;;;;;;12.73;84.81836;95804.33;;;;
2022/06/10 00:06:57;;;;;;;4.2;3.2;;;;;;;12.73;84.81836;95804.33;;;;
2022/06/10 00:07:58;;;;;;;4.2;3.2;;;;;;;12.73;84.81836;95804.33;;;;
2022/06/10 00:08:58;;;;;;;4.2;3.2;;;;;;;12.73;84.81836;95804.33;;;;
2022/06/10 00:09:59;;;;;;;4.2;3.2;;;;;;;12.73;84.81836;95804.33;;;;
2022/06/10 00:11:00;;;;;;;4.2;3.2;;;;;;;12.73;84.81836;95804.33;;;;
2022/06/10 00:12:02;;;;;;;4.2;3.2;;;;;;;12.73;84.81836;95804.33;;;;
2022/06/10 00:13:03;;;;;;;4.2;3.2;;;;;;;12.73;84.81836;95804.33;;;;
2022/06/10 00:14:05;;;;;;;4.2;3.2;;;;;;;12.73;84.81836;95804.33;;;;
2022/06/10 00:15:06;;;;;;;4.2;3.2;;;;;;;12.73;84.81836;95804.33;;;;
2022/06/10 00:16:08;;;;;;;4.2;3.2;;;;;;;12.73;84.81836;95804.33;;;;
2022/06/10 00:17:10;;;;;;;4.2;3.2;;;;;;;12.73;84.81836;95804.33;;;;
2022/06/10 00:18:10;;;;;;;4.2;3.2;;;;;;;12.73;84.81836;95804.33;;;;
2022/06/10 00:19:12;;;;;;;4.2;3.2;;;;;;;12.73;84.81836;95804.33;;;;
2022/06/10 00:20:12;;;;;;;4.2;3.2;;;;;;;12.73;84.81836;95804.33;;;;
2022/06/10 00:21:16;;;;;;;4.2;3.2;;;;;;;12.73;84.81836;95804.33;;;;
2022/06/10 00:22:18;;;;;;;4.2;3.2;;;;;;;12.73;84.81836;95804.33;;;;
2022/06/10 00:23:18;;;;;;;4.2;3.2;;;;;;;12.73;84.81836;95804.33;;;;
2022/06/10 00:24:19;;;;;;;4.2;3.2;;;;;;;12.73;84.81836;95804.33;;;;
2022/06/10 00:25:19;;;;;;;4.2;3.2;;;;;;;12.73;84.81836;95804.33;;;;
2022/06/10 00:26:21;;;;;;;4.75;3.15;;;;;;;12.63;85.17676;95818.46;;;;
2022/06/10 00:27:22;;;;;;;4.75;3.15;;;;;;;12.63;85.17676;95818.46;;;;
2022/06/10 00:28:22;;;;;;;4.75;3.15;;;;;;;12.63;85.17676;95818.46;;;;
2022/06/10 00:29:23;;;;;;;4.75;3.15;;;;;;;12.63;85.17676;95818.46;;;;
2022/06/10 00:30:23;;;;;;;4.75;3.15;;;;;;;12.63;85.17676;95818.46;;;;
2022/06/10 00:31:26;;;;;;;4.75;3.15;;;;;;;12.63;85.17676;95818.46;;;;
2022/06/10 00:32:27;;;;;;;4.75;3.15;;;;;;;12.63;85.17676;95818.46;;;;
2022/06/10 00:33:27;;;;;;;4.75;3.15;;;;;;;12.63;85.17676;95818.46;;;;
2022/06/10 00:34:28;;;;;;;4.75;3.15;;;;;;;12.63;85.17676;95818.46;;;;
2022/06/10 00:35:28;;;;;;;4.75;3.15;;;;;;;12.63;85.17676;95818.46;;;;
2022/06/10 00:36:30;;;;;;;4.7;3.3;;;;;;;12.53;85.23242;95819.42;;;;
2022/06/10 00:37:30;;;;;;;4.7;3.3;;;;;;;12.53;85.23242;95819.42;;;;
2022/06/10 00:38:32;;;;;;;4.7;3.3;;;;;;;12.53;85.23242;95819.42;;;;
2022/06/10 00:39:34;;;;;;;4.7;3.3;;;;;;;12.53;85.23242;95819.42;;;;
2022/06/10 00:40:35;;;;;;;4.7;3.3;;;;;;;12.53;85.23242;95819.42;;;;
2022/06/10 00:41:38;;;;;;;4.7;3.3;;;;;;;12.53;85.23242;95819.42;;;;
2022/06/10 00:42:40;;;;;;;4.7;3.3;;;;;;;12.53;85.23242;95819.42;;;;
2022/06/10 00:43:41;;;;;;;4.7;3.3;;;;;;;12.53;85.23242;95819.42;;;;
2022/06/10 00:44:42;;;;;;;4.7;3.3;;;;;;;12.53;85.23242;95819.42;;;;
2022/06/10 00:45:45;;;;;;;4.7;3.3;;;;;;;12.53;85.23242;95819.42;;;;
2022/06/10 00:46:55;;;;;;;4.7;3.3;;;;;;;12.53;85.23242;95819.42;;;;
2022/06/10 00:47:57;;;;;;;4.75;2.95;;;;;;;12.46;85.35938;95830.58;;;;
2022/06/10 00:48:57;;;;;;;4.75;2.95;;;;;;;12.46;85.35938;95830.58;;;;
2022/06/10 00:50:10;;;;;;;4.75;2.95;;;;;;;12.46;85.35938;95830.58;;;;
2022/06/10 00:51:19;;;;;;;4.75;2.95;;;;;;;12.46;85.35938;95830.58;;;;
2022/06/10 00:52:26;;;;;;;4.75;2.95;;;;;;;12.46;85.35938;95830.58;;;;
2022/06/10 00:53:31;;;;;;;4.75;2.95;;;;;;;12.46;85.35938;95830.58;;;;
2022/06/10 00:54:35;;;;;;;4.75;2.95;;;;;;;12.46;85.35938;95830.58;;;;
2022/06/10 00:55:40;;;;;;;4.75;2.95;;;;;;;12.46;85.35938;95830.58;;;;
2022/06/10 00:56:44;;;;;;;4.75;2.95;;;;;;;12.46;85.35938;95830.58;;;;
2022/06/10 00:57:49;;;;;;;4.549999;3.25;;;;;;;12.35;85.40234;95833.06;;;;
2022/06/10 00:58:50;;;;;;;4.549999;3.25;;;;;;;12.35;85.40234;95833.06;;;;
2022/06/10 00:59:55;;;;;;;4.549999;3.25;;;;;;;12.35;85.40234;95833.06;;;;
2022/06/10 01:01:02;;;;;;;4.549999;3.25;;;;;;;12.35;85.40234;95833.06;;;;
2022/06/10 01:02:04;;;;;;;4.549999;3.25;;;;;;;12.35;85.40234;95833.06;;;;
2022/06/10 01:03:10;;;;;;;4.549999;3.25;;;;;;;12.35;85.40234;95833.06;;;;
2022/06/10 01:04:11;;;;;;;4.549999;3.25;;;;;;;12.35;85.40234;95833.06;;;;
2022/06/10 01:05:11;;;;;;;4.549999;3.25;;;;;;;12.35;85.40234;95833.06;;;;
2022/06/10 01:06:16;;;;;;;4.549999;3.25;;;;;;;12.35;85.40234;95833.06;;;;
2022/06/10 01:07:16;;;;;;;4.549999;3.25;;;;;;;12.35;85.40234;95833.06;;;;
2022/06/10 01:08:21;;;;;;;4.549999;3.25;;;;;;;12.35;85.40234;95833.06;;;;
2022/06/10 01:09:23;;;;;;;4.45;2.95;;;;;;;12.29;85.5957;95825.42;;;;
2022/06/10 01:10:26;;;;;;;4.45;2.95;;;;;;;12.29;85.5957;95825.42;;;;
2022/06/10 01:11:29;;;;;;;4.45;2.95;;;;;;;12.29;85.5957;95825.42;;;;
2022/06/10 01:13:34;;;;;;;4.45;2.95;;;;;;;12.29;85.5957;95825.42;;;;
2022/06/10 01:14:49;;;;;;;4.45;2.95;;;;;;;12.29;85.5957;95825.42;;;;
2022/06/10 01:16:05;;;;;;;4.45;2.95;;;;;;;12.29;85.5957;95825.42;;;;
2022/06/10 01:17:16;;;;;;;4.45;2.95;;;;;;;12.29;85.5957;95825.42;;;;
2022/06/10 01:18:31;;;;;;;4.45;2.95;;;;;;;12.29;85.5957;95825.42;;;;
2022/06/10 01:19:43;;;;;;;4.099999;3.1;;;;;;;12.16;85.69824;95821.08;;;;
2022/06/10 01:21:06;;;;;;;4.099999;3.1;;;;;;;12.16;85.69824;95821.08;;;;
2022/06/10 01:22:19;;;;;;;4.099999;3.1;;;;;;;12.16;85.69824;95821.08;;;;
2022/06/10 01:23:44;;;;;;;4.099999;3.1;;;;;;;12.16;85.69824;95821.08;;;;
2022/06/10 01:25:09;;;;;;;4.099999;3.1;;;;;;;12.16;85.69824;95821.08;;;;
2022/06/10 01:27:47;;;;;;;4.099999;3.1;;;;;;;12.16;85.69824;95821.08;;;;
2022/06/10 01:29:01;;;;;;;4.099999;3.1;;;;;;;12.16;85.69824;95821.08;;;;
2022/06/10 01:30:30;;;;;;;4.05;3.3;;;;;;;12.12;85.92871;95837.93;;;;
2022/06/10 01:31:54;;;;;;;4.05;3.3;;;;;;;12.12;85.92871;95837.93;;;;
2022/06/10 01:32:59;;;;;;;4.05;3.3;;;;;;;12.12;85.92871;95837.93;;;;
2022/06/10 01:34:12;;;;;;;4.05;3.3;;;;;;;12.12;85.92871;95837.93;;;;
2022/06/10 01:35:22;;;;;;;4.05;3.3;;;;;;;12.12;85.92871;95837.93;;;;
2022/06/10 01:36:36;;;;;;;4.05;3.3;;;;;;;12.12;85.92871;95837.93;;;;
2022/06/10 01:37:47;;;;;;;4.05;3.3;;;;;;;12.12;85.92871;95837.93;;;;
2022/06/10 01:38:58;;;;;;;4.05;3.3;;;;;;;12.12;85.92871;95837.93;;;;
2022/06/10 01:40:08;;;;;;;4.05;3.3;;;;;;;12.12;85.92871;95837.93;;;;
2022/06/10 01:41:21;;;;;;;4.25;3.05;;;;;;;12.01;85.9375;95838.65;;;;
2022/06/10 01:42:29;;;;;;;4.25;3.05;;;;;;;12.01;85.9375;95838.65;;;;
2022/06/10 01:43:33;;;;;;;4.25;3.05;;;;;;;12.01;85.9375;95838.65;;;;
2022/06/10 01:44:41;;;;;;;4.25;3.05;;;;;;;12.01;85.9375;95838.65;;;;
2022/06/10 01:45:52;;;;;;;4.25;3.05;;;;;;;12.01;85.9375;95838.65;;;;
2022/06/10 01:47:03;;;;;;;4.25;3.05;;;;;;;12.01;85.9375;95838.65;;;;
2022/06/10 01:48:10;;;;;;;4.25;3.05;;;;;;;12.01;85.9375;95838.65;;;;
2022/06/10 01:49:17;;;;;;;4.25;3.05;;;;;;;12.01;85.9375;95838.65;;;;
2022/06/10 01:50:22;;;;;;;4.25;3.05;;;;;;;12.01;85.9375;95838.65;;;;
2022/06/10 01:51:30;;;;;;;4.25;3.05;;;;;;;12.01;85.9375;95838.65;;;;
2022/06/10 01:52:38;;;;;;;4.25;3.05;;;;;;;12.01;85.9375;95838.65;;;;
2022/06/10 01:53:43;;;;;;;4.25;3.05;;;;;;;12.01;85.9375;95838.65;;;;
2022/06/10 01:54:50;;;;;;;4.25;3.05;;;;;;;12.01;85.9375;95838.65;;;;
2022/06/10 01:56:00;;;;;;;4.25;3.05;;;;;;;12.01;85.9375;95838.65;;;;
2022/06/10 01:57:09;;;;;;;4.25;3.05;;;;;;;12.01;85.9375;95838.65;;;;
2022/06/10 01:58:16;;;;;;;4.25;3.05;;;;;;;12.01;85.9375;95838.65;;;;
2022/06/10 01:59:26;;;;;;;4.25;3.05;;;;;;;12.01;85.9375;95838.65;;;;
2022/06/10 02:00:30;;;;;;;4.25;3.05;;;;;;;12.01;85.9375;95838.65;;;;
2022/06/10 02:01:33;;;;;;;4.25;3.05;;;;;;;12.01;85.9375;95838.65;;;;
2022/06/10 02:02:38;;;;;;;4.1;3.15;;;;;;;11.87;86.27539;95855.6;;;;
2022/06/10 02:03:43;;;;;;;4.1;3.15;;;;;;;11.87;86.27539;95855.6;;;;
2022/06/10 02:04:49;;;;;;;4.1;3.15;;;;;;;11.87;86.27539;95855.6;;;;
2022/06/10 02:05:55;;;;;;;4.1;3.15;;;;;;;11.87;86.27539;95855.6;;;;
2022/06/10 02:06:59;;;;;;;4.1;3.15;;;;;;;11.87;86.27539;95855.6;;;;
2022/06/10 02:08:04;;;;;;;4.1;3.15;;;;;;;11.87;86.27539;95855.6;;;;
2022/06/10 02:09:11;;;;;;;4.1;3.15;;;;;;;11.87;86.27539;95855.6;;;;
2022/06/10 02:10:16;;;;;;;4.1;3.15;;;;;;;11.87;86.27539;95855.6;;;;
2022/06/10 02:11:23;;;;;;;4.1;3.15;;;;;;;11.87;86.27539;95855.6;;;;
2022/06/10 02:12:25;;;;;;;4.1;3.15;;;;;;;11.87;86.27539;95855.6;;;;
2022/06/10 02:13:30;;;;;;;4.700001;3.400001;;;;;;;11.82;86.34375;95865.88;;;;
2022/06/10 02:14:37;;;;;;;4.700001;3.400001;;;;;;;11.82;86.34375;95865.88;;;;
2022/06/10 02:15:42;;;;;;;4.700001;3.400001;;;;;;;11.82;86.34375;95865.88;;;;
2022/06/10 02:16:49;;;;;;;4.700001;3.400001;;;;;;;11.82;86.34375;95865.88;;;;
2022/06/10 02:17:50;;;;;;;4.700001;3.400001;;;;;;;11.82;86.34375;95865.88;;;;
2022/06/10 02:19:00;;;;;;;4.700001;3.400001;;;;;;;11.82;86.34375;95865.88;;;;
2022/06/10 02:20:05;;;;;;;4.700001;3.400001;;;;;;;11.82;86.34375;95865.88;;;;
2022/06/10 02:21:11;;;;;;;4.700001;3.400001;;;;;;;11.82;86.34375;95865.88;;;;
2022/06/10 02:22:18;;;;;;;4.700001;3.400001;;;;;;;11.82;86.34375;95865.88;;;;
2022/06/10 02:23:24;;;;;;;3.7;3.3;;;;;;;11.73;86.4668;95871.5;;;;
2022/06/10 02:24:28;;;;;;;3.7;3.3;;;;;;;11.73;86.4668;95871.5;;;;
2022/06/10 02:25:35;;;;;;;3.7;3.3;;;;;;;11.73;86.4668;95871.5;;;;
2022/06/10 02:26:41;;;;;;;3.7;3.3;;;;;;;11.73;86.4668;95871.5;;;;
2022/06/10 02:27:43;;;;;;;3.7;3.3;;;;;;;11.73;86.4668;95871.5;;;;
2022/06/10 02:28:50;;;;;;;3.7;3.3;;;;;;;11.73;86.4668;95871.5;;;;
2022/06/10 02:29:53;;;;;;;3.7;3.3;;;;;;;11.73;86.4668;95871.5;;;;
2022/06/10 02:31:00;;;;;;;3.7;3.3;;;;;;;11.73;86.4668;95871.5;;;;
2022/06/10 02:32:05;;;;;;;3.7;3.3;;;;;;;11.73;86.4668;95871.5;;;;
2022/06/10 02:33:07;;;;;;;3.7;3.3;;;;;;;11.73;86.4668;95871.5;;;;
2022/06/10 02:34:09;;;;;;;3.95;3.35;;;;;;;11.72;86.57031;95884.42;;;;
2022/06/10 02:35:10;;;;;;;3.95;3.35;;;;;;;11.72;86.57031;95884.42;;;;
2022/06/10 02:36:13;;;;;;;3.95;3.35;;;;;;;11.72;86.57031;95884.42;;;;
2022/06/10 02:37:20;;;;;;;3.95;3.35;;;;;;;11.72;86.57031;95884.42;;;;
2022/06/10 02:38:30;;;;;;;3.95;3.35;;;;;;;11.72;86.57031;95884.42;;;;
2022/06/10 02:39:38;;;;;;;3.95;3.35;;;;;;;11.72;86.57031;95884.42;;;;
2022/06/10 02:40:46;;;;;;;3.95;3.35;;;;;;;11.72;86.57031;95884.42;;;;
2022/06/10 02:41:53;;;;;;;3.95;3.35;;;;;;;11.72;86.57031;95884.42;;;;
2022/06/10 02:43:01;;;;;;;3.95;3.35;;;;;;;11.72;86.57031;95884.42;;;;
2022/06/10 02:44:08;;;;;;;3.95;3.35;;;;;;;11.72;86.57031;95884.42;;;;
2022/06/10 02:45:17;;;;;;;9.750001;3.65;;;;;;;11.62;86.62695;95893.24;;;;
2022/06/10 02:46:27;;;;;;;9.750001;3.65;;;;;;;11.62;86.62695;95893.24;;;;
2022/06/10 02:47:35;;;;;;;9.750001;3.65;;;;;;;11.62;86.62695;95893.24;;;;
2022/06/10 02:48:44;;;;;;;9.750001;3.65;;;;;;;11.62;86.62695;95893.24;;;;
2022/06/10 02:49:55;;;;;;;9.750001;3.65;;;;;;;11.62;86.62695;95893.24;;;;
2022/06/10 02:50:57;;;;;;;9.750001;3.65;;;;;;;11.62;86.62695;95893.24;;;;
2022/06/10 02:51:58;;;;;;;9.750001;3.65;;;;;;;11.62;86.62695;95893.24;;;;
2022/06/10 02:52:59;;;;;;;9.750001;3.65;;;;;;;11.62;86.62695;95893.24;;;;
2022/06/10 02:54:02;;;;;;;9.750001;3.65;;;;;;;11.62;86.62695;95893.24;;;;
2022/06/10 02:55:08;;;;;;;9.750001;3.65;;;;;;;11.62;86.62695;95893.24;;;;
2022/06/10 02:56:14;;;;;;;4.35;3.05;;;;;;;11.6;86.83691;95904.16;;;;
2022/06/10 02:57:17;;;;;;;4.35;3.05;;;;;;;11.6;86.83691;95904.16;;;;
2022/06/10 03:03:50;;;;;;;4.35;3.05;;;;;;;11.6;86.83691;95904.16;;;;
2022/06/10 03:05:07;;;;;;;4.35;3.05;;;;;;;11.6;86.83691;95904.16;;;;
2022/06/10 03:06:22;;;;;;;4.45;3.3;;;;;;;11.54;86.87695;95908.53;;;;
2022/06/10 03:07:29;;;;;;;4.45;3.3;;;;;;;11.54;86.87695;95908.53;;;;
2022/06/10 03:08:42;;;;;;;4.45;3.3;;;;;;;11.54;86.87695;95908.53;;;;
2022/06/10 03:09:47;;;;;;;4.45;3.3;;;;;;;11.54;86.87695;95908.53;;;;
2022/06/10 03:11:01;;;;;;;4.45;3.3;;;;;;;11.54;86.87695;95908.53;;;;
2022/06/10 03:12:12;;;;;;;4.45;3.3;;;;;;;11.54;86.87695;95908.53;;;;
2022/06/10 03:13:27;;;;;;;4.45;3.3;;;;;;;11.54;86.87695;95908.53;;;;
2022/06/10 03:14:43;;;;;;;4.45;3.3;;;;;;;11.54;86.87695;95908.53;;;;
2022/06/10 03:15:58;;;;;;;4.45;3.3;;;;;;;11.54;86.87695;95908.53;;;;
2022/06/10 03:17:15;;;;;;;6.150001;3.75;;;;;;;11.55;86.96484;95913.72;;;;
2022/06/10 03:18:25;;;;;;;6.150001;3.75;;;;;;;11.55;86.96484;95913.72;;;;
2022/06/10 03:19:35;;;;;;;6.150001;3.75;;;;;;;11.55;86.96484;95913.72;;;;
2022/06/10 03:20:46;;;;;;;6.150001;3.75;;;;;;;11.55;86.96484;95913.72;;;;
2022/06/10 03:21:57;;;;;;;6.150001;3.75;;;;;;;11.55;86.96484;95913.72;;;;
2022/06/10 03:23:07;;;;;;;6.150001;3.75;;;;;;;11.55;86.96484;95913.72;;;;
2022/06/10 03:24:14;;;;;;;6.150001;3.75;;;;;;;11.55;86.96484;95913.72;;;;
2022/06/10 03:25:24;;;;;;;6.150001;3.75;;;;;;;11.55;86.96484;95913.72;;;;
2022/06/10 03:26:31;;;;;;;6.150001;3.75;;;;;;;11.55;86.96484;95913.72;;;;
2022/06/10 03:27:40;;;;;;;4.6;3.6;;;;;;;11.48;87.00586;95926.53;;;;
2022/06/10 03:28:48;;;;;;;4.6;3.6;;;;;;;11.48;87.00586;95926.53;;;;
2022/06/10 03:29:56;;;;;;;4.6;3.6;;;;;;;11.48;87.00586;95926.53;;;;
2022/06/10 03:31:05;;;;;;;4.6;3.6;;;;;;;11.48;87.00586;95926.53;;;;
2022/06/10 03:32:11;;;;;;;4.6;3.6;;;;;;;11.48;87.00586;95926.53;;;;
2022/06/10 03:33:16;;;;;;;4.6;3.6;;;;;;;11.48;87.00586;95926.53;;;;
2022/06/10 03:34:24;;;;;;;4.6;3.6;;;;;;;11.48;87.00586;95926.53;;;;
2022/06/10 03:35:30;;;;;;;4.6;3.6;;;;;;;11.48;87.00586;95926.53;;;;
2022/06/10 03:36:36;;;;;;;4.6;3.6;;;;;;;11.48;87.00586;95926.53;;;;
2022/06/10 03:37:37;;;;;;;4.6;3.6;;;;;;;11.48;87.00586;95926.53;;;;
2022/06/10 03:38:40;;;;;;;4.649999;3.400001;;;;;;;11.55;87.1709;95934.81;;;;
2022/06/10 03:39:43;;;;;;;4.649999;3.400001;;;;;;;11.55;87.1709;95934.81;;;;
2022/06/10 03:40:49;;;;;;;4.649999;3.400001;;;;;;;11.55;87.1709;95934.81;;;;
2022/06/10 03:41:54;;;;;;;4.649999;3.400001;;;;;;;11.55;87.1709;95934.81;;;;
2022/06/10 03:42:59;;;;;;;4.649999;3.400001;;;;;;;11.55;87.1709;95934.81;;;;
2022/06/10 03:44:08;;;;;;;4.649999;3.400001;;;;;;;11.55;87.1709;95934.81;;;;
2022/06/10 03:45:13;;;;;;;4.649999;3.400001;;;;;;;11.55;87.1709;95934.81;;;;
2022/06/10 03:46:16;;;;;;;4.649999;3.400001;;;;;;;11.55;87.1709;95934.81;;;;
2022/06/10 03:47:20;;;;;;;4.649999;3.400001;;;;;;;11.55;87.1709;95934.81;;;;
2022/06/10 03:48:26;;;;;;;4.649999;3.400001;;;;;;;11.55;87.1709;95934.81;;;;
2022/06/10 03:49:29;;;;;;;5.299999;3.45;;;;;;;11.57;87.15332;95945.61;;;;
2022/06/10 03:50:41;;;;;;;5.299999;3.45;;;;;;;11.57;87.15332;95945.61;;;;
2022/06/10 03:51:42;;;;;;;5.299999;3.45;;;;;;;11.57;87.15332;95945.61;;;;
2022/06/10 03:52:44;;;;;;;5.299999;3.45;;;;;;;11.57;87.15332;95945.61;;;;
2022/06/10 03:53:45;;;;;;;5.299999;3.45;;;;;;;11.57;87.15332;95945.61;;;;
2022/06/10 03:54:47;;;;;;;5.299999;3.45;;;;;;;11.57;87.15332;95945.61;;;;
2022/06/10 03:55:47;;;;;;;5.299999;3.45;;;;;;;11.57;87.15332;95945.61;;;;
2022/06/10 03:56:51;;;;;;;5.299999;3.45;;;;;;;11.57;87.15332;95945.61;;;;
2022/06/10 03:57:52;;;;;;;5.299999;3.45;;;;;;;11.57;87.15332;95945.61;;;;
2022/06/10 03:58:52;;;;;;;5.299999;3.45;;;;;;;11.57;87.15332;95945.61;;;;
2022/06/10 03:59:53;;;;;;;4.199999;3.35;;;;;;;11.73;87.23828;95945.25;;;;
2022/06/10 04:00:54;;;;;;;4.199999;3.35;;;;;;;11.73;87.23828;95945.25;;;;
2022/06/10 04:01:54;;;;;;;4.199999;3.35;;;;;;;11.73;87.23828;95945.25;;;;
2022/06/10 04:02:55;;;;;;;4.199999;3.35;;;;;;;11.73;87.23828;95945.25;;;;
2022/06/10 04:03:55;;;;;;;4.199999;3.35;;;;;;;11.73;87.23828;95945.25;;;;
2022/06/10 04:04:56;;;;;;;4.199999;3.35;;;;;;;11.73;87.23828;95945.25;;;;
2022/06/10 04:05:56;;;;;;;4.199999;3.35;;;;;;;11.73;87.23828;95945.25;;;;
2022/06/10 04:06:57;;;;;;;4.199999;3.35;;;;;;;11.73;87.23828;95945.25;;;;
2022/06/10 04:07:58;;;;;;;4.199999;3.35;;;;;;;11.73;87.23828;95945.25;;;;
2022/06/10 04:08:58;;;;;;;4.199999;3.35;;;;;;;11.73;87.23828;95945.25;;;;
2022/06/10 04:09:59;;;;;;;4.799999;3.45;;;;;;;11.92;87.1377;95961.25;;;;
2022/06/10 04:10:59;;;;;;;4.799999;3.45;;;;;;;11.92;87.1377;95961.25;;;;
2022/06/10 04:12:00;;;;;;;4.799999;3.45;;;;;;;11.92;87.1377;95961.25;;;;
2022/06/10 04:13:00;;;;;;;4.799999;3.45;;;;;;;11.92;87.1377;95961.25;;;;
2022/06/10 04:14:01;;;;;;;4.799999;3.45;;;;;;;11.92;87.1377;95961.25;;;;
2022/06/10 04:15:01;;;;;;;4.799999;3.45;;;;;;;11.92;87.1377;95961.25;;;;
2022/06/10 04:16:03;;;;;;;4.799999;3.45;;;;;;;11.92;87.1377;95961.25;;;;
2022/06/10 04:17:04;;;;;;;4.799999;3.45;;;;;;;11.92;87.1377;95961.25;;;;
2022/06/10 04:18:05;;;;;;;4.799999;3.45;;;;;;;11.92;87.1377;95961.25;;;;
2022/06/10 04:19:06;;;;;;;4.799999;3.45;;;;;;;11.92;87.1377;95961.25;;;;
2022/06/10 04:20:06;;;;;;;4.799999;3.45;;;;;;;11.92;87.1377;95961.25;;;;
2022/06/10 04:21:11;;;;;;;4.799999;3.45;;;;;;;11.92;87.1377;95961.25;;;;
2022/06/10 04:22:11;;;;;;;4.799999;3.45;;;;;;;11.92;87.1377;95961.25;;;;
2022/06/10 04:23:13;;;;;;;4.799999;3.45;;;;;;;11.92;87.1377;95961.25;;;;
2022/06/10 04:24:13;;;;;;;4.799999;3.45;;;;;;;11.92;87.1377;95961.25;;;;
2022/06/10 04:25:14;;;;;;;4.799999;3.45;;;;;;;11.92;87.1377;95961.25;;;;
2022/06/10 04:26:14;;;;;;;4.799999;3.45;;;;;;;11.92;87.1377;95961.25;;;;
2022/06/10 04:27:15;;;;;;;4.799999;3.45;;;;;;;11.92;87.1377;95961.25;;;;
2022/06/10 04:28:16;;;;;;;4.799999;3.45;;;;;;;11.92;87.1377;95961.25;;;;
2022/06/10 04:29:16;;;;;;;4.799999;3.45;;;;;;;11.92;87.1377;95961.25;;;;
2022/06/10 04:30:17;;;;;;;4.799999;3.45;;;;;;;11.92;87.1377;95961.25;;;;
2022/06/10 04:31:23;;;;;;;4.750001;3.55;;;;;;;12.36;86.98633;95973.78;;;;
2022/06/10 04:32:24;;;;;;;4.750001;3.55;;;;;;;12.36;86.98633;95973.78;;;;
2022/06/10 04:33:24;;;;;;;4.750001;3.55;;;;;;;12.36;86.98633;95973.78;;;;
2022/06/10 04:34:25;;;;;;;4.750001;3.55;;;;;;;12.36;86.98633;95973.78;;;;
2022/06/10 04:35:25;;;;;;;4.750001;3.55;;;;;;;12.36;86.98633;95973.78;;;;
2022/06/10 04:36:29;;;;;;;4.750001;3.55;;;;;;;12.36;86.98633;95973.78;;;;
2022/06/10 04:37:30;;;;;;;4.750001;3.55;;;;;;;12.36;86.98633;95973.78;;;;
2022/06/10 04:38:30;;;;;;;4.750001;3.55;;;;;;;12.36;86.98633;95973.78;;;;
2022/06/10 04:39:31;;;;;;;4.750001;3.55;;;;;;;12.36;86.98633;95973.78;;;;
2022/06/10 04:40:32;;;;;;;4.750001;3.55;;;;;;;12.36;86.98633;95973.78;;;;
2022/06/10 04:41:35;;;;;;;4.750001;3.55;;;;;;;12.36;86.98633;95973.78;;;;
2022/06/10 04:42:35;;;;;;;4.9;3.55;;;;;;;12.68;86.99609;95969.96;;;;
2022/06/10 04:43:36;;;;;;;4.9;3.55;;;;;;;12.68;86.99609;95969.96;;;;
2022/06/10 04:44:37;;;;;;;4.9;3.55;;;;;;;12.68;86.99609;95969.96;;;;
2022/06/10 04:45:38;;;;;;;4.9;3.55;;;;;;;12.68;86.99609;95969.96;;;;
2022/06/10 04:46:42;;;;;;;4.9;3.55;;;;;;;12.68;86.99609;95969.96;;;;
2022/06/10 04:47:43;;;;;;;4.9;3.55;;;;;;;12.68;86.99609;95969.96;;;;
2022/06/10 04:48:44;;;;;;;4.9;3.55;;;;;;;12.68;86.99609;95969.96;;;;
2022/06/10 04:49:44;;;;;;;4.9;3.55;;;;;;;12.68;86.99609;95969.96;;;;
2022/06/10 04:50:47;;;;;;;4.9;3.55;;;;;;;12.68;86.99609;95969.96;;;;
2022/06/10 04:51:47;;;;;;;4.9;3.55;;;;;;;12.68;86.99609;95969.96;;;;
2022/06/10 04:52:48;;;;;;;3.6;2.95;;;;;;;12.97;86.77539;95974.66;;;;
2022/06/10 04:53:49;;;;;;;3.6;2.95;;;;;;;12.97;86.77539;95974.66;;;;
2022/06/10 04:54:49;;;;;;;3.6;2.95;;;;;;;12.97;86.77539;95974.66;;;;
2022/06/10 04:55:50;;;;;;;3.6;2.95;;;;;;;12.97;86.77539;95974.66;;;;
2022/06/10 04:56:50;;;;;;;3.6;2.95;;;;;;;12.97;86.77539;95974.66;;;;
2022/06/10 04:57:53;;;;;;;3.6;2.95;;;;;;;12.97;86.77539;95974.66;;;;
2022/06/10 04:58:54;;;;;;;3.6;2.95;;;;;;;12.97;86.77539;95974.66;;;;
2022/06/10 04:59:54;;;;;;;3.6;2.95;;;;;;;12.97;86.77539;95974.66;;;;
2022/06/10 05:00:55;;;;;;;3.6;2.95;;;;;;;12.97;86.77539;95974.66;;;;
2022/06/10 05:01:55;;;;;;;3.6;2.95;;;;;;;12.97;86.77539;95974.66;;;;
2022/06/10 05:02:56;;;;;;;3.6;2.95;;;;;;;12.97;86.77539;95974.66;;;;
2022/06/10 05:03:56;;;;;;;4.149999;2.95;;;;;;;13.4;86.61035;95985.13;;;;
2022/06/10 05:04:57;;;;;;;4.149999;2.95;;;;;;;13.4;86.61035;95985.13;;;;
2022/06/10 05:05:57;;;;;;;4.149999;2.95;;;;;;;13.4;86.61035;95985.13;;;;
2022/06/10 05:06:58;;;;;;;4.149999;2.95;;;;;;;13.4;86.61035;95985.13;;;;
2022/06/10 05:07:59;;;;;;;4.149999;2.95;;;;;;;13.4;86.61035;95985.13;;;;
2022/06/10 05:08:59;;;;;;;4.149999;2.95;;;;;;;13.4;86.61035;95985.13;;;;
2022/06/10 05:10:00;;;;;;;4.149999;2.95;;;;;;;13.4;86.61035;95985.13;;;;
2022/06/10 05:11:01;;;;;;;4.149999;2.95;;;;;;;13.4;86.61035;95985.13;;;;
2022/06/10 05:12:02;;;;;;;4.149999;2.95;;;;;;;13.4;86.61035;95985.13;;;;
2022/06/10 05:13:03;;;;;;;4.149999;2.95;;;;;;;13.4;86.61035;95985.13;;;;
2022/06/10 05:14:04;;;;;;;5.65;3.3;;;;;;;13.88;86.16406;95983.2;;;;
2022/06/10 05:15:05;;;;;;;5.65;3.3;;;;;;;13.88;86.16406;95983.2;;;;
2022/06/10 05:16:07;;;;;;;5.65;3.3;;;;;;;13.88;86.16406;95983.2;;;;
2022/06/10 05:17:07;;;;;;;5.65;3.3;;;;;;;13.88;86.16406;95983.2;;;;
2022/06/10 05:18:08;;;;;;;5.65;3.3;;;;;;;13.88;86.16406;95983.2;;;;
2022/06/10 05:19:11;;;;;;;5.65;3.3;;;;;;;13.88;86.16406;95983.2;;;;
2022/06/10 05:20:11;;;;;;;5.65;3.3;;;;;;;13.88;86.16406;95983.2;;;;
2022/06/10 05:21:17;;;;;;;5.65;3.3;;;;;;;13.88;86.16406;95983.2;;;;
2022/06/10 05:22:18;;;;;;;5.65;3.3;;;;;;;13.88;86.16406;95983.2;;;;
2022/06/10 05:23:18;;;;;;;5.65;3.3;;;;;;;13.88;86.16406;95983.2;;;;
2022/06/10 05:24:21;;;;;;;5.65;3.3;;;;;;;13.88;86.16406;95983.2;;;;
2022/06/10 05:25:22;;;;;;;4.6;2.6;;;;;;;14.52;85.55469;96001.46;;;;
2022/06/10 05:26:22;;;;;;;4.6;2.6;;;;;;;14.52;85.55469;96001.46;;;;
2022/06/10 05:27:23;;;;;;;4.6;2.6;;;;;;;14.52;85.55469;96001.46;;;;
2022/06/10 05:28:23;;;;;;;4.6;2.6;;;;;;;14.52;85.55469;96001.46;;;;
2022/06/10 05:29:24;;;;;;;4.6;2.6;;;;;;;14.52;85.55469;96001.46;;;;
2022/06/10 05:30:24;;;;;;;4.6;2.6;;;;;;;14.52;85.55469;96001.46;;;;
2022/06/10 05:31:27;;;;;;;4.6;2.6;;;;;;;14.52;85.55469;96001.46;;;;
2022/06/10 05:32:28;;;;;;;4.6;2.6;;;;;;;14.52;85.55469;96001.46;;;;
2022/06/10 05:34:44;;;;;;;4.6;2.6;;;;;;;14.52;85.55469;96001.46;;;;
2022/06/10 05:35:44;;;;;;;4.1;2.8;;;;;;;15.19;84.77441;96004.03;;;;
2022/06/10 05:36:46;;;;;;;4.1;2.8;;;;;;;15.19;84.77441;96004.03;;;;
2022/06/10 05:37:47;;;;;;;4.1;2.8;;;;;;;15.19;84.77441;96004.03;;;;
2022/06/10 05:38:49;;;;;;;4.1;2.8;;;;;;;15.19;84.77441;96004.03;;;;
2022/06/10 05:39:51;;;;;;;4.1;2.8;;;;;;;15.19;84.77441;96004.03;;;;
2022/06/10 05:42:04;;;;;;;4.1;2.8;;;;;;;15.19;84.77441;96004.03;;;;
2022/06/10 05:43:06;;;;;;;4.1;2.8;;;;;;;15.19;84.77441;96004.03;;;;
2022/06/10 05:44:07;;;;;;;4.1;2.8;;;;;;;15.19;84.77441;96004.03;;;;
2022/06/10 05:45:07;;;;;;;4.1;2.8;;;;;;;15.19;84.77441;96004.03;;;;
2022/06/10 05:46:09;;;;;;;4.55;2.55;;;;;;;15.94;83.86328;96001.34;;;;
2022/06/10 05:47:10;;;;;;;4.55;2.55;;;;;;;15.94;83.86328;96001.34;;;;
2022/06/10 05:48:13;;;;;;;4.55;2.55;;;;;;;15.94;83.86328;96001.34;;;;
2022/06/10 05:49:13;;;;;;;4.55;2.55;;;;;;;15.94;83.86328;96001.34;;;;
2022/06/10 05:50:14;;;;;;;4.55;2.55;;;;;;;15.94;83.86328;96001.34;;;;
2022/06/10 05:51:20;;;;;;;4.55;2.55;;;;;;;15.94;83.86328;96001.34;;;;
2022/06/10 05:52:21;;;;;;;4.55;2.55;;;;;;;15.94;83.86328;96001.34;;;;
2022/06/10 05:53:24;;;;;;;4.55;2.55;;;;;;;15.94;83.86328;96001.34;;;;
2022/06/10 05:54:25;;;;;;;4.55;2.55;;;;;;;15.94;83.86328;96001.34;;;;
2022/06/10 05:55:26;;;;;;;4.55;2.55;;;;;;;15.94;83.86328;96001.34;;;;
2022/06/10 05:56:26;;;;;;;4.55;2.55;;;;;;;15.94;83.86328;96001.34;;;;
2022/06/10 05:57:27;;;;;;;4.05;2.7;;;;;;;16.6;82.99902;96009.97;;;;
2022/06/10 05:58:30;;;;;;;4.05;2.7;;;;;;;16.6;82.99902;96009.97;;;;
2022/06/10 05:59:33;;;;;;;4.05;2.7;;;;;;;16.6;82.99902;96009.97;;;;
2022/06/10 06:00:34;;;;;;;4.05;2.7;;;;;;;16.6;82.99902;96009.97;;;;
2022/06/10 06:01:34;;;;;;;4.05;2.7;;;;;;;16.6;82.99902;96009.97;;;;
2022/06/10 06:02:35;;;;;;;4.05;2.7;;;;;;;16.6;82.99902;96009.97;;;;
2022/06/10 06:03:35;;;;;;;4.05;2.7;;;;;;;16.6;82.99902;96009.97;;;;
2022/06/10 06:04:36;;;;;;;4.05;2.7;;;;;;;16.6;82.99902;96009.97;;;;
2022/06/10 06:05:37;;;;;;;4.05;2.7;;;;;;;16.6;82.99902;96009.97;;;;
2022/06/10 06:06:38;;;;;;;4.05;2.7;;;;;;;16.6;82.99902;96009.97;;;;
2022/06/10 06:07:40;;;;;;;3.5;2.55;;;;;;;17.1;82.48145;96010.71;;;;
2022/06/10 06:08:43;;;;;;;3.5;2.55;;;;;;;17.1;82.48145;96010.71;;;;
2022/06/10 06:09:43;;;;;;;3.5;2.55;;;;;;;17.1;82.48145;96010.71;;;;
2022/06/10 06:10:44;;;;;;;3.5;2.55;;;;;;;17.1;82.48145;96010.71;;;;